sensor_id;sensor_type;location;lat;lon;timestamp;P1;durP1;ratioP1;P2;durP2;ratioP2
23270;SDS011;11804;51.118;17.058;2022-12-18T00:02:27;55.93;;;21.97;;
23270;SDS011;11804;51.118;17.058;2022-12-18T00:04:54;52.37;;;22.20;;
23270;SDS011;11804;51.118;17.058;2022-12-18T00:07:24;57.00;;;21.67;;
23270;SDS011;11804;51.118;17.058;2022-12-18T00:09:51;52.17;;;22.03;;
23270;SDS011;11804;51.118;17.058;2022-12-18T00:12:22;54.73;;;22.17;;
23270;SDS011;11804;51.118;17.058;2022-12-18T00:14:52;55.57;;;21.90;;
23270;SDS011;11804;51.118;17.058;2022-12-18T00:17:18;50.60;;;20.63;;
23270;SDS011;11804;51.118;17.058;2022-12-18T00:19:48;51.20;;;20.43;;
23270;SDS011;11804;51.118;17.058;2022-12-18T00:22:15;54.07;;;21.03;;
23270;SDS011;11804;51.118;17.058;2022-12-18T00:24:43;51.63;;;21.67;;
23270;SDS011;11804;51.118;17.058;2022-12-18T00:27:10;53.17;;;21.07;;
23270;SDS011;11804;51.118;17.058;2022-12-18T00:29:38;54.53;;;21.30;;
23270;SDS011;11804;51.118;17.058;2022-12-18T00:32:06;57.13;;;21.40;;
23270;SDS011;11804;51.118;17.058;2022-12-18T00:34:34;57.40;;;22.20;;
23270;SDS011;11804;51.118;17.058;2022-12-18T00:37:02;51.33;;;21.57;;
23270;SDS011;11804;51.118;17.058;2022-12-18T00:39:29;48.40;;;21.40;;
23270;SDS011;11804;51.118;17.058;2022-12-18T00:41:59;46.97;;;21.30;;
23270;SDS011;11804;51.118;17.058;2022-12-18T00:44:45;50.67;;;19.87;;
23270;SDS011;11804;51.118;17.058;2022-12-18T00:47:13;58.70;;;22.07;;
23270;SDS011;11804;51.118;17.058;2022-12-18T00:49:41;49.50;;;19.90;;
23270;SDS011;11804;51.118;17.058;2022-12-18T00:52:08;53.07;;;20.30;;
23270;SDS011;11804;51.118;17.058;2022-12-18T00:54:36;46.63;;;20.03;;
23270;SDS011;11804;51.118;17.058;2022-12-18T00:57:03;53.53;;;21.00;;
23270;SDS011;11804;51.118;17.058;2022-12-18T00:59:31;54.53;;;20.80;;
23270;SDS011;11804;51.118;17.058;2022-12-18T01:01:58;54.07;;;20.87;;
23270;SDS011;11804;51.118;17.058;2022-12-18T01:04:26;55.37;;;21.70;;
23270;SDS011;11804;51.118;17.058;2022-12-18T01:06:54;55.73;;;22.13;;
23270;SDS011;11804;51.118;17.058;2022-12-18T01:09:21;53.97;;;19.93;;
23270;SDS011;11804;51.118;17.058;2022-12-18T01:11:49;55.33;;;20.23;;
23270;SDS011;11804;51.118;17.058;2022-12-18T01:14:16;51.63;;;20.27;;
23270;SDS011;11804;51.118;17.058;2022-12-18T01:16:44;49.73;;;20.23;;
23270;SDS011;11804;51.118;17.058;2022-12-18T01:19:12;53.80;;;22.27;;
23270;SDS011;11804;51.118;17.058;2022-12-18T01:21:39;54.67;;;20.50;;
23270;SDS011;11804;51.118;17.058;2022-12-18T01:24:07;53.90;;;20.77;;
23270;SDS011;11804;51.118;17.058;2022-12-18T01:26:36;51.73;;;20.30;;
23270;SDS011;11804;51.118;17.058;2022-12-18T01:29:04;51.53;;;21.83;;
23270;SDS011;11804;51.118;17.058;2022-12-18T01:31:32;54.63;;;21.27;;
23270;SDS011;11804;51.118;17.058;2022-12-18T01:34:01;53.23;;;21.33;;
23270;SDS011;11804;51.118;17.058;2022-12-18T01:36:30;53.23;;;21.17;;
23270;SDS011;11804;51.118;17.058;2022-12-18T01:39:00;50.57;;;19.97;;
23270;SDS011;11804;51.118;17.058;2022-12-18T01:41:33;51.10;;;19.03;;
23270;SDS011;11804;51.118;17.058;2022-12-18T01:47:27;50.80;;;19.97;;
23270;SDS011;11804;51.118;17.058;2022-12-18T01:50:14;51.13;;;20.60;;
23270;SDS011;11804;51.118;17.058;2022-12-18T01:52:48;47.13;;;20.13;;
23270;SDS011;11804;51.118;17.058;2022-12-18T01:55:20;47.80;;;19.73;;
23270;SDS011;11804;51.118;17.058;2022-12-18T01:57:57;48.33;;;20.47;;
23270;SDS011;11804;51.118;17.058;2022-12-18T02:00:21;45.07;;;18.87;;
23270;SDS011;11804;51.118;17.058;2022-12-18T02:02:50;46.00;;;18.97;;
23270;SDS011;11804;51.118;17.058;2022-12-18T02:05:20;52.90;;;20.53;;
23270;SDS011;11804;51.118;17.058;2022-12-18T02:08:08;47.63;;;19.47;;
23270;SDS011;11804;51.118;17.058;2022-12-18T02:16:18;46.17;;;18.03;;
23270;SDS011;11804;51.118;17.058;2022-12-18T02:19:01;48.70;;;19.23;;
23270;SDS011;11804;51.118;17.058;2022-12-18T02:21:33;43.07;;;20.10;;
23270;SDS011;11804;51.118;17.058;2022-12-18T02:24:07;50.60;;;21.10;;
23270;SDS011;11804;51.118;17.058;2022-12-18T02:26:52;50.63;;;22.10;;
23270;SDS011;11804;51.118;17.058;2022-12-18T02:29:22;51.93;;;22.97;;
23270;SDS011;11804;51.118;17.058;2022-12-18T02:31:54;49.67;;;20.70;;
23270;SDS011;11804;51.118;17.058;2022-12-18T02:34:28;50.27;;;21.43;;
23270;SDS011;11804;51.118;17.058;2022-12-18T02:36:58;49.00;;;20.90;;
23270;SDS011;11804;51.118;17.058;2022-12-18T02:39:29;51.77;;;20.93;;
23270;SDS011;11804;51.118;17.058;2022-12-18T02:41:58;46.70;;;20.73;;
23270;SDS011;11804;51.118;17.058;2022-12-18T02:44:28;51.70;;;21.37;;
23270;SDS011;11804;51.118;17.058;2022-12-18T02:46:56;52.30;;;21.60;;
23270;SDS011;11804;51.118;17.058;2022-12-18T02:52:02;51.47;;;20.80;;
23270;SDS011;11804;51.118;17.058;2022-12-18T02:54:38;52.50;;;21.70;;
23270;SDS011;11804;51.118;17.058;2022-12-18T02:59:52;49.43;;;20.67;;
23270;SDS011;11804;51.118;17.058;2022-12-18T03:02:32;49.03;;;21.13;;
23270;SDS011;11804;51.118;17.058;2022-12-18T03:07:59;51.67;;;22.50;;
23270;SDS011;11804;51.118;17.058;2022-12-18T03:10:32;47.27;;;19.70;;
23270;SDS011;11804;51.118;17.058;2022-12-18T03:13:03;49.60;;;20.40;;
23270;SDS011;11804;51.118;17.058;2022-12-18T03:15:42;48.63;;;20.73;;
23270;SDS011;11804;51.118;17.058;2022-12-18T03:18:12;47.17;;;20.23;;
23270;SDS011;11804;51.118;17.058;2022-12-18T03:20:38;49.17;;;21.10;;
23270;SDS011;11804;51.118;17.058;2022-12-18T03:23:13;51.33;;;20.87;;
23270;SDS011;11804;51.118;17.058;2022-12-18T03:25:39;45.80;;;19.83;;
23270;SDS011;11804;51.118;17.058;2022-12-18T03:28:13;45.97;;;20.73;;
23270;SDS011;11804;51.118;17.058;2022-12-18T03:30:43;46.43;;;19.73;;
23270;SDS011;11804;51.118;17.058;2022-12-18T03:35:47;47.17;;;19.77;;
23270;SDS011;11804;51.118;17.058;2022-12-18T03:38:15;49.27;;;19.87;;
23270;SDS011;11804;51.118;17.058;2022-12-18T03:45:53;50.43;;;19.73;;
23270;SDS011;11804;51.118;17.058;2022-12-18T03:48:27;48.57;;;21.10;;
23270;SDS011;11804;51.118;17.058;2022-12-18T03:51:02;50.90;;;21.83;;
23270;SDS011;11804;51.118;17.058;2022-12-18T03:53:33;53.47;;;21.97;;
23270;SDS011;11804;51.118;17.058;2022-12-18T03:56:17;51.73;;;20.80;;
23270;SDS011;11804;51.118;17.058;2022-12-18T03:58:47;48.10;;;20.83;;
23270;SDS011;11804;51.118;17.058;2022-12-18T04:01:18;50.37;;;21.03;;
23270;SDS011;11804;51.118;17.058;2022-12-18T04:03:49;46.67;;;21.20;;
23270;SDS011;11804;51.118;17.058;2022-12-18T04:06:17;52.23;;;22.00;;
23270;SDS011;11804;51.118;17.058;2022-12-18T04:08:46;48.67;;;21.10;;
23270;SDS011;11804;51.118;17.058;2022-12-18T04:11:14;47.80;;;20.30;;
23270;SDS011;11804;51.118;17.058;2022-12-18T04:13:42;42.97;;;18.00;;
23270;SDS011;11804;51.118;17.058;2022-12-18T04:16:10;43.27;;;19.33;;
23270;SDS011;11804;51.118;17.058;2022-12-18T04:18:37;41.63;;;18.97;;
23270;SDS011;11804;51.118;17.058;2022-12-18T04:21:05;42.07;;;19.63;;
23270;SDS011;11804;51.118;17.058;2022-12-18T04:23:33;47.97;;;19.80;;
23270;SDS011;11804;51.118;17.058;2022-12-18T04:26:00;46.30;;;20.63;;
23270;SDS011;11804;51.118;17.058;2022-12-18T04:28:29;48.20;;;20.60;;
23270;SDS011;11804;51.118;17.058;2022-12-18T04:30:57;47.73;;;19.50;;
23270;SDS011;11804;51.118;17.058;2022-12-18T04:33:24;42.47;;;20.60;;
23270;SDS011;11804;51.118;17.058;2022-12-18T04:35:52;47.73;;;20.90;;
23270;SDS011;11804;51.118;17.058;2022-12-18T04:38:20;47.27;;;20.40;;
23270;SDS011;11804;51.118;17.058;2022-12-18T04:40:47;43.83;;;18.47;;
23270;SDS011;11804;51.118;17.058;2022-12-18T04:43:15;43.70;;;19.13;;
23270;SDS011;11804;51.118;17.058;2022-12-18T04:45:43;47.53;;;19.80;;
23270;SDS011;11804;51.118;17.058;2022-12-18T04:48:11;45.53;;;19.47;;
23270;SDS011;11804;51.118;17.058;2022-12-18T04:50:39;46.20;;;20.97;;
23270;SDS011;11804;51.118;17.058;2022-12-18T04:53:07;49.30;;;20.13;;
23270;SDS011;11804;51.118;17.058;2022-12-18T04:55:34;50.73;;;20.40;;
23270;SDS011;11804;51.118;17.058;2022-12-18T04:58:02;46.63;;;20.50;;
23270;SDS011;11804;51.118;17.058;2022-12-18T05:00:30;48.40;;;20.77;;
23270;SDS011;11804;51.118;17.058;2022-12-18T05:02:57;44.87;;;20.30;;
23270;SDS011;11804;51.118;17.058;2022-12-18T05:05:28;41.30;;;19.17;;
23270;SDS011;11804;51.118;17.058;2022-12-18T05:07:55;47.23;;;20.80;;
23270;SDS011;11804;51.118;17.058;2022-12-18T05:10:23;45.30;;;18.67;;
23270;SDS011;11804;51.118;17.058;2022-12-18T05:12:51;43.43;;;17.30;;
23270;SDS011;11804;51.118;17.058;2022-12-18T05:15:32;42.07;;;18.83;;
23270;SDS011;11804;51.118;17.058;2022-12-18T05:17:57;50.17;;;19.93;;
23270;SDS011;11804;51.118;17.058;2022-12-18T05:20:26;44.97;;;19.57;;
23270;SDS011;11804;51.118;17.058;2022-12-18T05:22:54;50.27;;;21.27;;
23270;SDS011;11804;51.118;17.058;2022-12-18T05:25:23;50.20;;;20.40;;
23270;SDS011;11804;51.118;17.058;2022-12-18T05:27:54;46.03;;;20.03;;
23270;SDS011;11804;51.118;17.058;2022-12-18T05:30:23;44.43;;;18.60;;
23270;SDS011;11804;51.118;17.058;2022-12-18T05:32:50;44.93;;;19.83;;
23270;SDS011;11804;51.118;17.058;2022-12-18T05:35:18;44.03;;;18.50;;
23270;SDS011;11804;51.118;17.058;2022-12-18T05:37:46;41.07;;;18.33;;
23270;SDS011;11804;51.118;17.058;2022-12-18T05:40:13;44.57;;;19.43;;
23270;SDS011;11804;51.118;17.058;2022-12-18T05:42:41;42.43;;;18.80;;
23270;SDS011;11804;51.118;17.058;2022-12-18T05:45:10;37.80;;;17.13;;
23270;SDS011;11804;51.118;17.058;2022-12-18T05:47:37;38.60;;;17.20;;
23270;SDS011;11804;51.118;17.058;2022-12-18T05:50:06;42.03;;;19.30;;
23270;SDS011;11804;51.118;17.058;2022-12-18T05:52:34;40.30;;;17.87;;
23270;SDS011;11804;51.118;17.058;2022-12-18T05:55:02;41.80;;;19.50;;
23270;SDS011;11804;51.118;17.058;2022-12-18T05:57:30;45.13;;;20.97;;
23270;SDS011;11804;51.118;17.058;2022-12-18T05:59:57;49.20;;;22.50;;
23270;SDS011;11804;51.118;17.058;2022-12-18T06:02:25;56.27;;;22.90;;
23270;SDS011;11804;51.118;17.058;2022-12-18T06:04:54;55.30;;;21.40;;
23270;SDS011;11804;51.118;17.058;2022-12-18T06:07:22;71.40;;;25.90;;
23270;SDS011;11804;51.118;17.058;2022-12-18T06:09:49;67.60;;;26.00;;
23270;SDS011;11804;51.118;17.058;2022-12-18T06:12:17;64.70;;;25.27;;
23270;SDS011;11804;51.118;17.058;2022-12-18T06:14:44;86.93;;;28.67;;
23270;SDS011;11804;51.118;17.058;2022-12-18T06:17:12;67.37;;;26.40;;
23270;SDS011;11804;51.118;17.058;2022-12-18T06:19:40;56.30;;;23.37;;
23270;SDS011;11804;51.118;17.058;2022-12-18T06:22:07;62.23;;;25.40;;
23270;SDS011;11804;51.118;17.058;2022-12-18T06:24:35;51.10;;;21.83;;
23270;SDS011;11804;51.118;17.058;2022-12-18T06:27:03;49.17;;;23.23;;
23270;SDS011;11804;51.118;17.058;2022-12-18T06:29:30;48.60;;;20.83;;
23270;SDS011;11804;51.118;17.058;2022-12-18T06:31:58;53.63;;;23.07;;
23270;SDS011;11804;51.118;17.058;2022-12-18T06:34:26;55.90;;;23.80;;
23270;SDS011;11804;51.118;17.058;2022-12-18T06:36:53;68.77;;;25.83;;
23270;SDS011;11804;51.118;17.058;2022-12-18T06:39:23;63.43;;;25.30;;
23270;SDS011;11804;51.118;17.058;2022-12-18T06:41:50;58.33;;;24.57;;
23270;SDS011;11804;51.118;17.058;2022-12-18T06:44:18;62.70;;;28.33;;
23270;SDS011;11804;51.118;17.058;2022-12-18T06:46:46;75.13;;;29.00;;
23270;SDS011;11804;51.118;17.058;2022-12-18T06:49:14;75.07;;;29.37;;
23270;SDS011;11804;51.118;17.058;2022-12-18T06:51:42;67.50;;;28.03;;
23270;SDS011;11804;51.118;17.058;2022-12-18T06:54:09;66.17;;;28.27;;
23270;SDS011;11804;51.118;17.058;2022-12-18T06:56:37;67.87;;;27.67;;
23270;SDS011;11804;51.118;17.058;2022-12-18T06:59:04;60.17;;;25.73;;
23270;SDS011;11804;51.118;17.058;2022-12-18T07:01:32;60.33;;;25.00;;
23270;SDS011;11804;51.118;17.058;2022-12-18T07:04:00;64.80;;;27.50;;
23270;SDS011;11804;51.118;17.058;2022-12-18T07:06:27;62.93;;;25.30;;
23270;SDS011;11804;51.118;17.058;2022-12-18T07:08:55;64.33;;;25.63;;
23270;SDS011;11804;51.118;17.058;2022-12-18T07:11:23;60.40;;;25.83;;
23270;SDS011;11804;51.118;17.058;2022-12-18T07:13:51;65.73;;;26.40;;
23270;SDS011;11804;51.118;17.058;2022-12-18T07:16:20;64.93;;;25.33;;
23270;SDS011;11804;51.118;17.058;2022-12-18T07:18:48;57.20;;;25.27;;
23270;SDS011;11804;51.118;17.058;2022-12-18T07:21:17;76.10;;;30.30;;
23270;SDS011;11804;51.118;17.058;2022-12-18T07:23:46;62.57;;;26.43;;
23270;SDS011;11804;51.118;17.058;2022-12-18T07:26:15;59.77;;;25.27;;
23270;SDS011;11804;51.118;17.058;2022-12-18T07:28:44;64.63;;;27.90;;
23270;SDS011;11804;51.118;17.058;2022-12-18T07:31:14;60.97;;;26.63;;
23270;SDS011;11804;51.118;17.058;2022-12-18T07:33:46;62.07;;;27.00;;
23270;SDS011;11804;51.118;17.058;2022-12-18T07:36:14;70.67;;;32.27;;
23270;SDS011;11804;51.118;17.058;2022-12-18T07:38:41;77.87;;;29.50;;
23270;SDS011;11804;51.118;17.058;2022-12-18T07:41:10;70.40;;;29.63;;
23270;SDS011;11804;51.118;17.058;2022-12-18T07:43:39;66.70;;;28.20;;
23270;SDS011;11804;51.118;17.058;2022-12-18T07:46:08;71.70;;;28.30;;
23270;SDS011;11804;51.118;17.058;2022-12-18T07:48:36;73.43;;;31.80;;
23270;SDS011;11804;51.118;17.058;2022-12-18T07:51:04;78.40;;;33.33;;
23270;SDS011;11804;51.118;17.058;2022-12-18T07:53:33;76.57;;;32.80;;
23270;SDS011;11804;51.118;17.058;2022-12-18T07:56:03;79.07;;;32.70;;
23270;SDS011;11804;51.118;17.058;2022-12-18T07:58:34;77.93;;;32.10;;
23270;SDS011;11804;51.118;17.058;2022-12-18T08:01:03;77.13;;;33.77;;
23270;SDS011;11804;51.118;17.058;2022-12-18T08:03:36;63.63;;;28.70;;
23270;SDS011;11804;51.118;17.058;2022-12-18T08:06:05;64.33;;;30.20;;
23270;SDS011;11804;51.118;17.058;2022-12-18T08:08:34;62.93;;;29.67;;
23270;SDS011;11804;51.118;17.058;2022-12-18T08:11:02;58.07;;;26.60;;
23270;SDS011;11804;51.118;17.058;2022-12-18T08:13:30;57.63;;;25.50;;
23270;SDS011;11804;51.118;17.058;2022-12-18T08:16:03;57.63;;;26.53;;
23270;SDS011;11804;51.118;17.058;2022-12-18T08:18:37;48.37;;;22.20;;
23270;SDS011;11804;51.118;17.058;2022-12-18T08:21:08;49.13;;;21.67;;
23270;SDS011;11804;51.118;17.058;2022-12-18T08:23:44;50.70;;;23.10;;
23270;SDS011;11804;51.118;17.058;2022-12-18T08:26:11;48.07;;;23.40;;
23270;SDS011;11804;51.118;17.058;2022-12-18T08:28:40;48.37;;;23.33;;
23270;SDS011;11804;51.118;17.058;2022-12-18T08:31:08;44.80;;;21.07;;
23270;SDS011;11804;51.118;17.058;2022-12-18T08:33:36;51.07;;;23.13;;
23270;SDS011;11804;51.118;17.058;2022-12-18T08:36:05;49.80;;;23.73;;
23270;SDS011;11804;51.118;17.058;2022-12-18T08:38:33;55.33;;;24.23;;
23270;SDS011;11804;51.118;17.058;2022-12-18T08:41:02;57.33;;;25.93;;
23270;SDS011;11804;51.118;17.058;2022-12-18T08:43:31;54.13;;;24.20;;
23270;SDS011;11804;51.118;17.058;2022-12-18T08:46:17;53.63;;;23.53;;
23270;SDS011;11804;51.118;17.058;2022-12-18T08:48:46;60.83;;;26.87;;
23270;SDS011;11804;51.118;17.058;2022-12-18T08:51:15;54.57;;;23.97;;
23270;SDS011;11804;51.118;17.058;2022-12-18T08:53:43;54.40;;;25.00;;
23270;SDS011;11804;51.118;17.058;2022-12-18T08:56:11;54.13;;;24.53;;
23270;SDS011;11804;51.118;17.058;2022-12-18T08:58:41;47.73;;;21.43;;
23270;SDS011;11804;51.118;17.058;2022-12-18T09:01:09;55.23;;;24.10;;
23270;SDS011;11804;51.118;17.058;2022-12-18T09:03:39;54.63;;;24.07;;
23270;SDS011;11804;51.118;17.058;2022-12-18T09:06:08;49.47;;;21.57;;
23270;SDS011;11804;51.118;17.058;2022-12-18T09:08:35;50.33;;;22.13;;
23270;SDS011;11804;51.118;17.058;2022-12-18T09:11:03;47.43;;;21.37;;
23270;SDS011;11804;51.118;17.058;2022-12-18T09:13:32;47.27;;;21.90;;
23270;SDS011;11804;51.118;17.058;2022-12-18T09:15:59;46.97;;;22.50;;
23270;SDS011;11804;51.118;17.058;2022-12-18T09:18:28;49.33;;;23.33;;
23270;SDS011;11804;51.118;17.058;2022-12-18T09:20:56;48.03;;;21.93;;
23270;SDS011;11804;51.118;17.058;2022-12-18T09:23:23;46.40;;;22.70;;
23270;SDS011;11804;51.118;17.058;2022-12-18T09:25:51;50.20;;;21.93;;
23270;SDS011;11804;51.118;17.058;2022-12-18T09:28:20;46.63;;;21.27;;
23270;SDS011;11804;51.118;17.058;2022-12-18T09:30:48;49.77;;;20.50;;
23270;SDS011;11804;51.118;17.058;2022-12-18T09:33:16;51.47;;;22.50;;
23270;SDS011;11804;51.118;17.058;2022-12-18T09:35:44;50.93;;;23.00;;
23270;SDS011;11804;51.118;17.058;2022-12-18T09:38:14;48.73;;;22.67;;
23270;SDS011;11804;51.118;17.058;2022-12-18T09:40:44;46.47;;;20.47;;
23270;SDS011;11804;51.118;17.058;2022-12-18T09:43:22;45.73;;;22.40;;
23270;SDS011;11804;51.118;17.058;2022-12-18T09:46:02;57.33;;;25.33;;
23270;SDS011;11804;51.118;17.058;2022-12-18T09:48:31;49.20;;;22.80;;
23270;SDS011;11804;51.118;17.058;2022-12-18T09:51:05;53.87;;;25.17;;
23270;SDS011;11804;51.118;17.058;2022-12-18T09:53:34;55.63;;;26.70;;
23270;SDS011;11804;51.118;17.058;2022-12-18T09:56:11;63.10;;;27.70;;
23270;SDS011;11804;51.118;17.058;2022-12-18T09:58:46;55.13;;;24.27;;
23270;SDS011;11804;51.118;17.058;2022-12-18T10:01:20;58.70;;;26.17;;
23270;SDS011;11804;51.118;17.058;2022-12-18T10:03:51;62.70;;;28.03;;
23270;SDS011;11804;51.118;17.058;2022-12-18T10:08:59;57.23;;;25.03;;
23270;SDS011;11804;51.118;17.058;2022-12-18T10:11:53;60.57;;;26.80;;
23270;SDS011;11804;51.118;17.058;2022-12-18T10:14:27;52.63;;;24.63;;
23270;SDS011;11804;51.118;17.058;2022-12-18T10:19:55;54.07;;;23.83;;
23270;SDS011;11804;51.118;17.058;2022-12-18T10:22:26;50.57;;;24.00;;
23270;SDS011;11804;51.118;17.058;2022-12-18T10:27:28;49.23;;;24.27;;
23270;SDS011;11804;51.118;17.058;2022-12-18T10:29:57;51.17;;;24.13;;
23270;SDS011;11804;51.118;17.058;2022-12-18T10:32:28;54.23;;;25.47;;
23270;SDS011;11804;51.118;17.058;2022-12-18T10:34:57;56.83;;;25.00;;
23270;SDS011;11804;51.118;17.058;2022-12-18T10:37:28;48.17;;;22.43;;
23270;SDS011;11804;51.118;17.058;2022-12-18T10:40:12;50.10;;;23.27;;
23270;SDS011;11804;51.118;17.058;2022-12-18T10:42:37;55.93;;;25.53;;
23270;SDS011;11804;51.118;17.058;2022-12-18T10:47:47;138.27;;;58.73;;
23270;SDS011;11804;51.118;17.058;2022-12-18T10:50:19;63.53;;;29.03;;
23270;SDS011;11804;51.118;17.058;2022-12-18T10:52:52;59.17;;;27.77;;
23270;SDS011;11804;51.118;17.058;2022-12-18T10:55:24;61.27;;;28.20;;
23270;SDS011;11804;51.118;17.058;2022-12-18T10:58:13;69.67;;;32.03;;
23270;SDS011;11804;51.118;17.058;2022-12-18T11:03:35;59.87;;;27.63;;
23270;SDS011;11804;51.118;17.058;2022-12-18T11:06:06;58.97;;;26.27;;
23270;SDS011;11804;51.118;17.058;2022-12-18T11:08:36;84.13;;;40.13;;
23270;SDS011;11804;51.118;17.058;2022-12-18T11:11:07;83.57;;;36.83;;
23270;SDS011;11804;51.118;17.058;2022-12-18T11:13:35;70.20;;;31.60;;
23270;SDS011;11804;51.118;17.058;2022-12-18T11:16:03;81.57;;;36.93;;
23270;SDS011;11804;51.118;17.058;2022-12-18T11:18:34;68.87;;;31.37;;
23270;SDS011;11804;51.118;17.058;2022-12-18T11:21:07;68.17;;;29.60;;
23270;SDS011;11804;51.118;17.058;2022-12-18T11:23:37;66.17;;;27.73;;
23270;SDS011;11804;51.118;17.058;2022-12-18T11:26:19;59.70;;;26.87;;
23270;SDS011;11804;51.118;17.058;2022-12-18T11:28:52;67.80;;;29.70;;
23270;SDS011;11804;51.118;17.058;2022-12-18T11:31:22;66.77;;;29.63;;
23270;SDS011;11804;51.118;17.058;2022-12-18T11:34:01;68.50;;;28.50;;
23270;SDS011;11804;51.118;17.058;2022-12-18T11:36:38;65.43;;;27.53;;
23270;SDS011;11804;51.118;17.058;2022-12-18T11:42:11;64.77;;;29.00;;
23270;SDS011;11804;51.118;17.058;2022-12-18T11:44:47;66.33;;;27.93;;
23270;SDS011;11804;51.118;17.058;2022-12-18T11:47:25;82.03;;;38.30;;
23270;SDS011;11804;51.118;17.058;2022-12-18T11:49:54;62.57;;;26.00;;
23270;SDS011;11804;51.118;17.058;2022-12-18T11:52:37;62.47;;;27.93;;
23270;SDS011;11804;51.118;17.058;2022-12-18T11:55:18;66.77;;;29.30;;
23270;SDS011;11804;51.118;17.058;2022-12-18T12:00:47;62.77;;;28.97;;
23270;SDS011;11804;51.118;17.058;2022-12-18T12:08:50;60.97;;;28.97;;
23270;SDS011;11804;51.118;17.058;2022-12-18T12:11:33;63.97;;;30.07;;
23270;SDS011;11804;51.118;17.058;2022-12-18T12:19:25;66.93;;;30.37;;
23270;SDS011;11804;51.118;17.058;2022-12-18T12:27:17;62.17;;;30.30;;
23270;SDS011;11804;51.118;17.058;2022-12-18T12:38:17;66.67;;;30.13;;
23270;SDS011;11804;51.118;17.058;2022-12-18T12:40:51;124.20;;;51.90;;
23270;SDS011;11804;51.118;17.058;2022-12-18T12:46:06;99.90;;;38.90;;
23270;SDS011;11804;51.118;17.058;2022-12-18T12:54:00;77.93;;;33.83;;
23270;SDS011;11804;51.118;17.058;2022-12-18T12:56:36;75.67;;;32.03;;
23270;SDS011;11804;51.118;17.058;2022-12-18T12:59:10;74.20;;;34.73;;
23270;SDS011;11804;51.118;17.058;2022-12-18T13:01:54;82.77;;;34.87;;
23270;SDS011;11804;51.118;17.058;2022-12-18T13:04:35;72.77;;;29.87;;
23270;SDS011;11804;51.118;17.058;2022-12-18T13:15:39;82.03;;;34.27;;
23270;SDS011;11804;51.118;17.058;2022-12-18T13:18:18;81.70;;;37.70;;
23270;SDS011;11804;51.118;17.058;2022-12-18T13:21:01;81.60;;;35.40;;
23270;SDS011;11804;51.118;17.058;2022-12-18T13:23:34;69.13;;;30.87;;
23270;SDS011;11804;51.118;17.058;2022-12-18T13:34:23;71.23;;;29.37;;
23270;SDS011;11804;51.118;17.058;2022-12-18T13:36:57;75.10;;;31.47;;
23270;SDS011;11804;51.118;17.058;2022-12-18T13:39:44;72.87;;;31.50;;
23270;SDS011;11804;51.118;17.058;2022-12-18T13:44:55;77.70;;;34.00;;
23270;SDS011;11804;51.118;17.058;2022-12-18T13:50:15;124.80;;;44.50;;
23270;SDS011;11804;51.118;17.058;2022-12-18T13:52:46;107.60;;;40.87;;
23270;SDS011;11804;51.118;17.058;2022-12-18T13:55:18;87.90;;;34.20;;
23270;SDS011;11804;51.118;17.058;2022-12-18T13:57:52;101.50;;;39.87;;
23270;SDS011;11804;51.118;17.058;2022-12-18T14:00:25;76.70;;;33.47;;
23270;SDS011;11804;51.118;17.058;2022-12-18T14:02:55;73.33;;;29.30;;
23270;SDS011;11804;51.118;17.058;2022-12-18T14:05:25;72.60;;;32.53;;
23270;SDS011;11804;51.118;17.058;2022-12-18T14:07:55;72.60;;;29.73;;
23270;SDS011;11804;51.118;17.058;2022-12-18T14:10:31;67.83;;;26.83;;
23270;SDS011;11804;51.118;17.058;2022-12-18T14:13:03;75.77;;;31.50;;
23270;SDS011;11804;51.118;17.058;2022-12-18T14:15:42;70.20;;;29.00;;
23270;SDS011;11804;51.118;17.058;2022-12-18T14:20:52;73.83;;;31.60;;
23270;SDS011;11804;51.118;17.058;2022-12-18T14:28:55;70.50;;;29.53;;
23270;SDS011;11804;51.118;17.058;2022-12-18T14:31:27;79.70;;;31.63;;
23270;SDS011;11804;51.118;17.058;2022-12-18T14:33:56;70.53;;;30.23;;
23270;SDS011;11804;51.118;17.058;2022-12-18T14:36:28;77.73;;;33.67;;
23270;SDS011;11804;51.118;17.058;2022-12-18T14:38:55;76.50;;;32.67;;
23270;SDS011;11804;51.118;17.058;2022-12-18T14:41:25;76.20;;;32.13;;
23270;SDS011;11804;51.118;17.058;2022-12-18T14:43:54;81.53;;;33.63;;
23270;SDS011;11804;51.118;17.058;2022-12-18T14:46:57;97.93;;;39.30;;
23270;SDS011;11804;51.118;17.058;2022-12-18T14:49:01;84.70;;;36.50;;
23270;SDS011;11804;51.118;17.058;2022-12-18T14:51:33;82.90;;;34.83;;
23270;SDS011;11804;51.118;17.058;2022-12-18T14:54:03;81.70;;;30.63;;
23270;SDS011;11804;51.118;17.058;2022-12-18T14:56:36;76.43;;;30.73;;
23270;SDS011;11804;51.118;17.058;2022-12-18T14:59:12;93.07;;;36.03;;
23270;SDS011;11804;51.118;17.058;2022-12-18T15:04:39;84.67;;;33.47;;
23270;SDS011;11804;51.118;17.058;2022-12-18T15:07:13;82.17;;;33.37;;
23270;SDS011;11804;51.118;17.058;2022-12-18T15:09:41;88.40;;;34.17;;
23270;SDS011;11804;51.118;17.058;2022-12-18T15:12:20;86.27;;;34.03;;
23270;SDS011;11804;51.118;17.058;2022-12-18T15:14:49;97.00;;;37.77;;
23270;SDS011;11804;51.118;17.058;2022-12-18T15:17:18;99.53;;;38.50;;
23270;SDS011;11804;51.118;17.058;2022-12-18T15:19:48;84.53;;;34.30;;
23270;SDS011;11804;51.118;17.058;2022-12-18T15:22:22;85.57;;;38.23;;
23270;SDS011;11804;51.118;17.058;2022-12-18T15:24:55;92.50;;;36.23;;
23270;SDS011;11804;51.118;17.058;2022-12-18T15:32:43;93.47;;;37.40;;
23270;SDS011;11804;51.118;17.058;2022-12-18T15:35:25;92.27;;;37.00;;
23270;SDS011;11804;51.118;17.058;2022-12-18T15:37:50;107.83;;;45.63;;
23270;SDS011;11804;51.118;17.058;2022-12-18T15:40:19;94.30;;;37.97;;
23270;SDS011;11804;51.118;17.058;2022-12-18T15:42:51;101.17;;;39.90;;
23270;SDS011;11804;51.118;17.058;2022-12-18T15:45:38;83.07;;;33.57;;
23270;SDS011;11804;51.118;17.058;2022-12-18T15:48:21;89.57;;;34.90;;
23270;SDS011;11804;51.118;17.058;2022-12-18T15:50:51;90.77;;;35.57;;
23270;SDS011;11804;51.118;17.058;2022-12-18T15:53:23;88.53;;;36.77;;
23270;SDS011;11804;51.118;17.058;2022-12-18T15:55:52;98.63;;;37.27;;
23270;SDS011;11804;51.118;17.058;2022-12-18T15:58:37;96.00;;;40.20;;
23270;SDS011;11804;51.118;17.058;2022-12-18T16:01:05;97.50;;;38.33;;
23270;SDS011;11804;51.118;17.058;2022-12-18T16:03:35;86.30;;;37.33;;
23270;SDS011;11804;51.118;17.058;2022-12-18T16:06:03;84.67;;;35.37;;
23270;SDS011;11804;51.118;17.058;2022-12-18T16:08:31;90.10;;;33.87;;
23270;SDS011;11804;51.118;17.058;2022-12-18T16:11:00;101.50;;;38.17;;
23270;SDS011;11804;51.118;17.058;2022-12-18T16:13:38;93.30;;;36.40;;
23270;SDS011;11804;51.118;17.058;2022-12-18T16:16:07;95.07;;;36.03;;
23270;SDS011;11804;51.118;17.058;2022-12-18T16:18:35;82.87;;;34.87;;
23270;SDS011;11804;51.118;17.058;2022-12-18T16:21:02;92.87;;;34.97;;
23270;SDS011;11804;51.118;17.058;2022-12-18T16:23:30;94.17;;;36.60;;
23270;SDS011;11804;51.118;17.058;2022-12-18T16:25:57;86.33;;;35.27;;